sensor_id;sensor_type;location;lat;lon;timestamp;P1;durP1;ratioP1;P2;durP2;ratioP2
72785;SDS011;60902;53.876;10.674;2022-10-04T00:00:11;8.20;;;2.05;;
72785;SDS011;60902;53.876;10.674;2022-10-04T00:00:38;6.93;;;1.70;;
72785;SDS011;60902;53.876;10.674;2022-10-04T00:00:51;7.03;;;1.75;;
72785;SDS011;60902;53.876;10.674;2022-10-04T00:01:10;6.38;;;1.75;;
72785;SDS011;60902;53.876;10.674;2022-10-04T00:01:22;6.93;;;2.03;;
72785;SDS011;60902;53.876;10.674;2022-10-04T00:01:43;7.47;;;2.20;;
72785;SDS011;60902;53.876;10.674;2022-10-04T00:01:59;7.03;;;1.90;;
72785;SDS011;60902;53.876;10.674;2022-10-04T00:02:18;5.75;;;1.80;;
72785;SDS011;60902;53.876;10.674;2022-10-04T00:02:35;5.78;;;1.70;;
72785;SDS011;60902;53.876;10.674;2022-10-04T00:02:47;6.15;;;1.90;;
72785;SDS011;60902;53.876;10.674;2022-10-04T00:03:00;6.03;;;1.90;;
72785;SDS011;60902;53.876;10.674;2022-10-04T00:03:17;6.05;;;1.70;;
72785;SDS011;60902;53.876;10.674;2022-10-04T00:03:34;7.03;;;1.70;;
72785;SDS011;60902;53.876;10.674;2022-10-04T00:03:51;6.75;;;1.70;;
72785;SDS011;60902;53.876;10.674;2022-10-04T00:04:13;6.38;;;1.70;;
72785;SDS011;60902;53.876;10.674;2022-10-04T00:04:28;7.25;;;1.70;;
72785;SDS011;60902;53.876;10.674;2022-10-04T00:04:43;8.40;;;2.28;;
72785;SDS011;60902;53.876;10.674;2022-10-04T00:04:59;8.18;;;2.30;;
72785;SDS011;60902;53.876;10.674;2022-10-04T00:05:15;7.03;;;1.80;;
72785;SDS011;60902;53.876;10.674;2022-10-04T00:05:30;5.88;;;1.60;;
72785;SDS011;60902;53.876;10.674;2022-10-04T00:05:41;5.68;;;1.50;;
72785;SDS011;60902;53.876;10.674;2022-10-04T00:05:57;5.43;;;1.58;;
72785;SDS011;60902;53.876;10.674;2022-10-04T00:06:16;5.93;;;1.70;;
72785;SDS011;60902;53.876;10.674;2022-10-04T00:06:30;5.45;;;1.75;;
72785;SDS011;60902;53.876;10.674;2022-10-04T00:06:42;5.28;;;1.77;;
72785;SDS011;60902;53.876;10.674;2022-10-04T00:06:58;6.47;;;2.10;;
72785;SDS011;60902;53.876;10.674;2022-10-04T00:07:15;7.60;;;2.47;;
72785;SDS011;60902;53.876;10.674;2022-10-04T00:07:32;7.60;;;2.15;;
72785;SDS011;60902;53.876;10.674;2022-10-04T00:07:45;6.28;;;1.70;;
72785;SDS011;60902;53.876;10.674;2022-10-04T00:08:37;6.22;;;1.80;;
72785;SDS011;60902;53.876;10.674;2022-10-04T00:08:54;6.72;;;1.83;;
72785;SDS011;60902;53.876;10.674;2022-10-04T00:09:11;6.63;;;1.73;;
72785;SDS011;60902;53.876;10.674;2022-10-04T00:09:25;6.32;;;1.70;;
72785;SDS011;60902;53.876;10.674;2022-10-04T00:09:42;5.65;;;1.70;;
72785;SDS011;60902;53.876;10.674;2022-10-04T00:09:57;5.20;;;1.60;;
72785;SDS011;60902;53.876;10.674;2022-10-04T00:10:15;5.28;;;1.60;;
72785;SDS011;60902;53.876;10.674;2022-10-04T00:10:29;5.88;;;2.08;;
72785;SDS011;60902;53.876;10.674;2022-10-04T00:10:42;6.30;;;2.15;;
72785;SDS011;60902;53.876;10.674;2022-10-04T00:11:00;6.18;;;1.60;;
72785;SDS011;60902;53.876;10.674;2022-10-04T00:11:15;5.20;;;1.52;;
72785;SDS011;60902;53.876;10.674;2022-10-04T00:11:30;5.30;;;1.75;;
72785;SDS011;60902;53.876;10.674;2022-10-04T00:11:45;6.53;;;1.83;;
72785;SDS011;60902;53.876;10.674;2022-10-04T00:11:57;7.25;;;1.75;;
72785;SDS011;60902;53.876;10.674;2022-10-04T00:12:13;6.57;;;1.70;;
72785;SDS011;60902;53.876;10.674;2022-10-04T00:12:29;5.97;;;1.98;;
72785;SDS011;60902;53.876;10.674;2022-10-04T00:12:44;6.40;;;2.00;;
72785;SDS011;60902;53.876;10.674;2022-10-04T00:13:00;5.82;;;1.75;;
72785;SDS011;60902;53.876;10.674;2022-10-04T00:13:15;5.80;;;1.50;;
72785;SDS011;60902;53.876;10.674;2022-10-04T00:13:29;6.65;;;1.60;;
72785;SDS011;60902;53.876;10.674;2022-10-04T00:13:40;6.43;;;1.70;;
72785;SDS011;60902;53.876;10.674;2022-10-04T00:13:58;7.78;;;1.80;;
72785;SDS011;60902;53.876;10.674;2022-10-04T00:14:15;8.38;;;1.80;;
72785;SDS011;60902;53.876;10.674;2022-10-04T00:14:30;6.25;;;1.85;;
72785;SDS011;60902;53.876;10.674;2022-10-04T00:14:45;5.85;;;1.90;;
72785;SDS011;60902;53.876;10.674;2022-10-04T00:14:56;5.97;;;1.70;;
72785;SDS011;60902;53.876;10.674;2022-10-04T00:15:16;6.70;;;2.00;;
72785;SDS011;60902;53.876;10.674;2022-10-04T00:15:32;6.80;;;1.85;;
72785;SDS011;60902;53.876;10.674;2022-10-04T00:15:46;6.47;;;1.92;;
72785;SDS011;60902;53.876;10.674;2022-10-04T00:15:59;6.80;;;2.00;;
72785;SDS011;60902;53.876;10.674;2022-10-04T00:16:17;6.57;;;1.95;;
72785;SDS011;60902;53.876;10.674;2022-10-04T00:16:31;7.00;;;1.85;;
72785;SDS011;60902;53.876;10.674;2022-10-04T00:16:45;7.03;;;1.75;;
72785;SDS011;60902;53.876;10.674;2022-10-04T00:16:58;6.90;;;1.73;;
72785;SDS011;60902;53.876;10.674;2022-10-04T00:17:17;7.05;;;1.73;;
72785;SDS011;60902;53.876;10.674;2022-10-04T00:17:33;6.15;;;1.60;;
72785;SDS011;60902;53.876;10.674;2022-10-04T00:17:45;6.70;;;1.70;;
72785;SDS011;60902;53.876;10.674;2022-10-04T00:18:18;6.22;;;1.58;;
72785;SDS011;60902;53.876;10.674;2022-10-04T00:18:36;5.45;;;1.60;;
72785;SDS011;60902;53.876;10.674;2022-10-04T00:18:52;5.75;;;1.88;;
72785;SDS011;60902;53.876;10.674;2022-10-04T00:19:25;6.20;;;1.80;;
72785;SDS011;60902;53.876;10.674;2022-10-04T00:19:48;6.28;;;1.98;;
72785;SDS011;60902;53.876;10.674;2022-10-04T00:20:03;6.57;;;1.83;;
72785;SDS011;60902;53.876;10.674;2022-10-04T00:20:57;6.32;;;1.80;;
72785;SDS011;60902;53.876;10.674;2022-10-04T00:21:13;6.32;;;1.90;;
72785;SDS011;60902;53.876;10.674;2022-10-04T00:21:24;6.10;;;1.70;;
72785;SDS011;60902;53.876;10.674;2022-10-04T00:22:17;5.38;;;1.90;;
72785;SDS011;60902;53.876;10.674;2022-10-04T00:22:30;6.03;;;1.90;;
72785;SDS011;60902;53.876;10.674;2022-10-04T00:22:42;6.95;;;2.00;;
72785;SDS011;60902;53.876;10.674;2022-10-04T00:23:45;6.63;;;1.80;;
72785;SDS011;60902;53.876;10.674;2022-10-04T00:24:07;6.47;;;1.67;;
72785;SDS011;60902;53.876;10.674;2022-10-04T00:24:20;6.68;;;1.75;;
72785;SDS011;60902;53.876;10.674;2022-10-04T00:24:32;6.68;;;1.80;;
72785;SDS011;60902;53.876;10.674;2022-10-04T00:25:33;5.78;;;1.63;;
72785;SDS011;60902;53.876;10.674;2022-10-04T00:25:45;6.13;;;1.65;;
72785;SDS011;60902;53.876;10.674;2022-10-04T00:25:57;5.70;;;1.80;;
72785;SDS011;60902;53.876;10.674;2022-10-04T00:26:10;5.68;;;1.70;;
72785;SDS011;60902;53.876;10.674;2022-10-04T00:27:19;5.82;;;1.63;;
72785;SDS011;60902;53.876;10.674;2022-10-04T00:27:33;7.18;;;1.80;;
72785;SDS011;60902;53.876;10.674;2022-10-04T00:28:28;7.22;;;1.98;;
72785;SDS011;60902;53.876;10.674;2022-10-04T00:28:54;6.55;;;2.15;;
72785;SDS011;60902;53.876;10.674;2022-10-04T00:29:42;7.78;;;1.90;;
72785;SDS011;60902;53.876;10.674;2022-10-04T00:30:24;6.07;;;1.70;;
72785;SDS011;60902;53.876;10.674;2022-10-04T00:30:35;6.68;;;1.70;;
72785;SDS011;60902;53.876;10.674;2022-10-04T00:31:31;7.65;;;1.92;;
72785;SDS011;60902;53.876;10.674;2022-10-04T00:32:37;6.82;;;2.03;;
72785;SDS011;60902;53.876;10.674;2022-10-04T00:33:00;6.72;;;1.90;;
72785;SDS011;60902;53.876;10.674;2022-10-04T00:33:22;6.13;;;1.77;;
72785;SDS011;60902;53.876;10.674;2022-10-04T00:33:44;6.75;;;1.83;;
72785;SDS011;60902;53.876;10.674;2022-10-04T00:34:05;6.25;;;1.73;;
72785;SDS011;60902;53.876;10.674;2022-10-04T00:34:47;5.65;;;1.70;;
72785;SDS011;60902;53.876;10.674;2022-10-04T00:35:00;5.53;;;1.50;;
72785;SDS011;60902;53.876;10.674;2022-10-04T00:35:58;5.90;;;1.77;;
72785;SDS011;60902;53.876;10.674;2022-10-04T00:36:56;6.32;;;1.95;;
72785;SDS011;60902;53.876;10.674;2022-10-04T00:37:11;6.18;;;1.70;;
72785;SDS011;60902;53.876;10.674;2022-10-04T00:37:23;6.65;;;1.70;;
72785;SDS011;60902;53.876;10.674;2022-10-04T00:38:07;5.63;;;1.70;;
72785;SDS011;60902;53.876;10.674;2022-10-04T00:38:24;5.97;;;2.00;;
72785;SDS011;60902;53.876;10.674;2022-10-04T00:38:36;5.43;;;1.90;;
72785;SDS011;60902;53.876;10.674;2022-10-04T00:39:00;5.18;;;1.60;;
72785;SDS011;60902;53.876;10.674;2022-10-04T00:39:15;5.78;;;1.55;;
72785;SDS011;60902;53.876;10.674;2022-10-04T00:40:01;6.88;;;1.88;;
72785;SDS011;60902;53.876;10.674;2022-10-04T00:40:19;5.30;;;1.60;;
72785;SDS011;60902;53.876;10.674;2022-10-04T00:40:31;5.43;;;1.60;;
72785;SDS011;60902;53.876;10.674;2022-10-04T00:40:45;6.22;;;1.73;;
72785;SDS011;60902;53.876;10.674;2022-10-04T00:41:03;7.18;;;2.13;;
72785;SDS011;60902;53.876;10.674;2022-10-04T00:41:17;7.18;;;2.25;;
72785;SDS011;60902;53.876;10.674;2022-10-04T00:41:32;7.60;;;2.20;;
72785;SDS011;60902;53.876;10.674;2022-10-04T00:41:52;7.18;;;2.05;;
72785;SDS011;60902;53.876;10.674;2022-10-04T00:42:31;6.93;;;2.10;;
72785;SDS011;60902;53.876;10.674;2022-10-04T00:42:57;5.70;;;1.60;;
72785;SDS011;60902;53.876;10.674;2022-10-04T00:43:11;6.72;;;1.80;;
72785;SDS011;60902;53.876;10.674;2022-10-04T00:43:26;7.60;;;2.13;;
72785;SDS011;60902;53.876;10.674;2022-10-04T00:43:43;7.45;;;2.15;;
72785;SDS011;60902;53.876;10.674;2022-10-04T00:43:57;7.03;;;1.97;;
72785;SDS011;60902;53.876;10.674;2022-10-04T00:44:11;6.80;;;1.90;;
72785;SDS011;60902;53.876;10.674;2022-10-04T00:44:32;5.68;;;1.63;;
72785;SDS011;60902;53.876;10.674;2022-10-04T00:44:50;5.82;;;1.80;;
72785;SDS011;60902;53.876;10.674;2022-10-04T00:45:07;7.10;;;1.90;;
72785;SDS011;60902;53.876;10.674;2022-10-04T00:45:25;6.32;;;2.00;;
72785;SDS011;60902;53.876;10.674;2022-10-04T00:45:40;5.00;;;1.90;;
72785;SDS011;60902;53.876;10.674;2022-10-04T00:45:55;6.18;;;1.85;;
72785;SDS011;60902;53.876;10.674;2022-10-04T00:46:10;7.80;;;2.05;;
72785;SDS011;60902;53.876;10.674;2022-10-04T00:46:25;6.75;;;1.98;;
72785;SDS011;60902;53.876;10.674;2022-10-04T00:46:39;5.93;;;1.83;;
72785;SDS011;60902;53.876;10.674;2022-10-04T00:46:52;6.72;;;1.90;;
72785;SDS011;60902;53.876;10.674;2022-10-04T00:47:11;6.82;;;1.98;;
72785;SDS011;60902;53.876;10.674;2022-10-04T00:47:29;6.82;;;1.90;;
72785;SDS011;60902;53.876;10.674;2022-10-04T00:48:35;4.93;;;1.77;;
72785;SDS011;60902;53.876;10.674;2022-10-04T00:48:53;6.50;;;2.00;;
72785;SDS011;60902;53.876;10.674;2022-10-04T00:49:07;6.93;;;1.85;;
72785;SDS011;60902;53.876;10.674;2022-10-04T00:49:23;5.40;;;1.73;;
72785;SDS011;60902;53.876;10.674;2022-10-04T00:49:39;6.15;;;2.03;;
72785;SDS011;60902;53.876;10.674;2022-10-04T00:49:55;6.97;;;2.17;;
72785;SDS011;60902;53.876;10.674;2022-10-04T00:50:12;5.95;;;2.30;;
72785;SDS011;60902;53.876;10.674;2022-10-04T00:50:28;6.72;;;2.42;;
72785;SDS011;60902;53.876;10.674;2022-10-04T00:50:44;6.80;;;2.15;;
72785;SDS011;60902;53.876;10.674;2022-10-04T00:51:05;5.75;;;1.90;;
72785;SDS011;60902;53.876;10.674;2022-10-04T00:51:23;6.05;;;1.80;;
72785;SDS011;60902;53.876;10.674;2022-10-04T00:51:37;6.47;;;1.90;;
72785;SDS011;60902;53.876;10.674;2022-10-04T00:51:52;6.05;;;1.80;;
72785;SDS011;60902;53.876;10.674;2022-10-04T00:52:11;6.40;;;1.85;;
72785;SDS011;60902;53.876;10.674;2022-10-04T00:52:24;5.95;;;2.00;;
72785;SDS011;60902;53.876;10.674;2022-10-04T00:52:40;5.97;;;1.88;;
72785;SDS011;60902;53.876;10.674;2022-10-04T00:52:55;6.03;;;1.85;;
72785;SDS011;60902;53.876;10.674;2022-10-04T00:53:13;6.60;;;1.85;;
72785;SDS011;60902;53.876;10.674;2022-10-04T00:53:41;6.75;;;1.90;;
72785;SDS011;60902;53.876;10.674;2022-10-04T00:54:00;6.38;;;2.20;;
72785;SDS011;60902;53.876;10.674;2022-10-04T00:54:17;6.50;;;2.20;;
72785;SDS011;60902;53.876;10.674;2022-10-04T00:54:31;6.45;;;2.20;;
72785;SDS011;60902;53.876;10.674;2022-10-04T00:54:46;5.90;;;2.08;;
72785;SDS011;60902;53.876;10.674;2022-10-04T00:55:01;6.40;;;2.42;;
72785;SDS011;60902;53.876;10.674;2022-10-04T00:55:18;6.47;;;2.40;;
72785;SDS011;60902;53.876;10.674;2022-10-04T00:55:35;5.97;;;1.98;;
72785;SDS011;60902;53.876;10.674;2022-10-04T00:55:50;6.30;;;1.90;;
72785;SDS011;60902;53.876;10.674;2022-10-04T00:56:06;6.93;;;2.22;;
72785;SDS011;60902;53.876;10.674;2022-10-04T00:56:22;6.68;;;2.38;;
72785;SDS011;60902;53.876;10.674;2022-10-04T00:56:38;6.50;;;1.98;;
72785;SDS011;60902;53.876;10.674;2022-10-04T00:56:54;6.90;;;1.92;;
72785;SDS011;60902;53.876;10.674;2022-10-04T00:57:07;6.47;;;1.88;;
72785;SDS011;60902;53.876;10.674;2022-10-04T00:57:21;6.45;;;1.92;;
72785;SDS011;60902;53.876;10.674;2022-10-04T00:57:37;6.22;;;2.00;;
72785;SDS011;60902;53.876;10.674;2022-10-04T00:57:52;5.43;;;2.10;;
72785;SDS011;60902;53.876;10.674;2022-10-04T00:58:12;5.63;;;2.17;;
72785;SDS011;60902;53.876;10.674;2022-10-04T00:58:28;6.07;;;1.88;;
72785;SDS011;60902;53.876;10.674;2022-10-04T00:58:44;6.05;;;1.90;;
72785;SDS011;60902;53.876;10.674;2022-10-04T00:59:44;5.75;;;1.80;;
72785;SDS011;60902;53.876;10.674;2022-10-04T00:59:57;6.10;;;1.90;;
72785;SDS011;60902;53.876;10.674;2022-10-04T01:00:13;6.03;;;1.98;;
72785;SDS011;60902;53.876;10.674;2022-10-04T01:00:27;6.18;;;2.17;;
72785;SDS011;60902;53.876;10.674;2022-10-04T01:00:42;7.50;;;2.20;;
72785;SDS011;60902;53.876;10.674;2022-10-04T01:00:56;7.72;;;2.13;;
72785;SDS011;60902;53.876;10.674;2022-10-04T01:01:08;6.40;;;2.30;;
72785;SDS011;60902;53.876;10.674;2022-10-04T01:01:20;6.57;;;2.20;;
72785;SDS011;60902;53.876;10.674;2022-10-04T01:01:35;7.60;;;2.08;;
72785;SDS011;60902;53.876;10.674;2022-10-04T01:01:48;6.70;;;1.95;;
72785;SDS011;60902;53.876;10.674;2022-10-04T01:02:04;6.63;;;2.10;;
72785;SDS011;60902;53.876;10.674;2022-10-04T01:02:22;6.88;;;2.05;;
72785;SDS011;60902;53.876;10.674;2022-10-04T01:02:37;6.78;;;2.28;;
72785;SDS011;60902;53.876;10.674;2022-10-04T01:03:00;6.13;;;2.30;;
72785;SDS011;60902;53.876;10.674;2022-10-04T01:03:17;6.90;;;2.40;;
72785;SDS011;60902;53.876;10.674;2022-10-04T01:03:32;7.30;;;2.60;;
72785;SDS011;60902;53.876;10.674;2022-10-04T01:03:47;6.88;;;2.50;;
72785;SDS011;60902;53.876;10.674;2022-10-04T01:04:02;6.63;;;2.20;;
72785;SDS011;60902;53.876;10.674;2022-10-04T01:04:22;6.57;;;2.20;;
72785;SDS011;60902;53.876;10.674;2022-10-04T01:04:39;7.90;;;2.30;;
72785;SDS011;60902;53.876;10.674;2022-10-04T01:04:53;7.97;;;2.20;;
72785;SDS011;60902;53.876;10.674;2022-10-04T01:05:10;7.38;;;2.25;;
72785;SDS011;60902;53.876;10.674;2022-10-04T01:05:27;8.00;;;2.30;;
72785;SDS011;60902;53.876;10.674;2022-10-04T01:05:41;6.80;;;2.15;;
72785;SDS011;60902;53.876;10.674;2022-10-04T01:05:58;6.05;;;2.33;;
72785;SDS011;60902;53.876;10.674;2022-10-04T01:06:11;7.53;;;2.47;;
72785;SDS011;60902;53.876;10.674;2022-10-04T01:06:23;7.10;;;2.40;;
72785;SDS011;60902;53.876;10.674;2022-10-04T01:06:35;6.57;;;2.40;;
72785;SDS011;60902;53.876;10.674;2022-10-04T01:06:46;6.60;;;2.60;;
72785;SDS011;60902;53.876;10.674;2022-10-04T01:06:59;6.25;;;2.58;;
72785;SDS011;60902;53.876;10.674;2022-10-04T01:07:12;6.13;;;2.53;;
72785;SDS011;60902;53.876;10.674;2022-10-04T01:07:27;7.22;;;2.65;;
72785;SDS011;60902;53.876;10.674;2022-10-04T01:07:43;7.10;;;2.38;;
72785;SDS011;60902;53.876;10.674;2022-10-04T01:07:56;6.88;;;2.25;;
72785;SDS011;60902;53.876;10.674;2022-10-04T01:08:13;8.05;;;2.30;;
72785;SDS011;60902;53.876;10.674;2022-10-04T01:08:29;7.55;;;2.03;;
72785;SDS011;60902;53.876;10.674;2022-10-04T01:08:46;6.35;;;2.28;;
72785;SDS011;60902;53.876;10.674;2022-10-04T01:09:01;6.47;;;2.55;;
72785;SDS011;60902;53.876;10.674;2022-10-04T01:09:16;6.28;;;2.25;;
72785;SDS011;60902;53.876;10.674;2022-10-04T01:09:28;6.60;;;2.20;;
72785;SDS011;60902;53.876;10.674;2022-10-04T01:09:44;6.30;;;2.15;;
72785;SDS011;60902;53.876;10.674;2022-10-04T01:10:00;6.57;;;2.38;;
72785;SDS011;60902;53.876;10.674;2022-10-04T01:10:16;6.72;;;2.30;;
72785;SDS011;60902;53.876;10.674;2022-10-04T01:10:31;6.50;;;2.30;;
72785;SDS011;60902;53.876;10.674;2022-10-04T01:10:49;7.47;;;2.53;;
72785;SDS011;60902;53.876;10.674;2022-10-04T01:11:03;6.88;;;2.30;;
72785;SDS011;60902;53.876;10.674;2022-10-04T01:11:19;7.38;;;2.45;;
72785;SDS011;60902;53.876;10.674;2022-10-04T01:11:35;8.20;;;2.50;;
72785;SDS011;60902;53.876;10.674;2022-10-04T01:11:53;7.72;;;2.70;;
72785;SDS011;60902;53.876;10.674;2022-10-04T01:12:18;8.32;;;2.80;;
72785;SDS011;60902;53.876;10.674;2022-10-04T01:12:39;8.57;;;2.42;;
72785;SDS011;60902;53.876;10.674;2022-10-04T01:12:55;7.67;;;2.50;;
72785;SDS011;60902;53.876;10.674;2022-10-04T01:13:15;7.47;;;2.28;;
72785;SDS011;60902;53.876;10.674;2022-10-04T01:13:29;7.00;;;2.30;;
72785;SDS011;60902;53.876;10.674;2022-10-04T01:13:47;6.10;;;2.50;;
72785;SDS011;60902;53.876;10.674;2022-10-04T01:14:02;7.03;;;2.85;;
72785;SDS011;60902;53.876;10.674;2022-10-04T01:14:18;6.07;;;2.80;;
72785;SDS011;60902;53.876;10.674;2022-10-04T01:14:38;6.65;;;2.80;;
72785;SDS011;60902;53.876;10.674;2022-10-04T01:15:00;6.47;;;2.72;;
72785;SDS011;60902;53.876;10.674;2022-10-04T01:15:16;6.63;;;2.58;;
72785;SDS011;60902;53.876;10.674;2022-10-04T01:15:35;6.47;;;2.75;;
72785;SDS011;60902;53.876;10.674;2022-10-04T01:15:53;6.75;;;2.53;;
72785;SDS011;60902;53.876;10.674;2022-10-04T01:16:10;6.68;;;2.70;;
72785;SDS011;60902;53.876;10.674;2022-10-04T01:16:24;7.25;;;2.90;;
72785;SDS011;60902;53.876;10.674;2022-10-04T01:16:38;7.38;;;2.78;;
72785;SDS011;60902;53.876;10.674;2022-10-04T01:16:49;6.55;;;2.63;;
72785;SDS011;60902;53.876;10.674;2022-10-04T01:17:01;6.03;;;2.53;;
72785;SDS011;60902;53.876;10.674;2022-10-04T01:17:13;6.88;;;2.47;;
72785;SDS011;60902;53.876;10.674;2022-10-04T01:17:24;6.78;;;2.40;;
72785;SDS011;60902;53.876;10.674;2022-10-04T01:17:35;6.90;;;2.42;;
72785;SDS011;60902;53.876;10.674;2022-10-04T01:18:09;6.60;;;2.85;;
72785;SDS011;60902;53.876;10.674;2022-10-04T01:18:30;7.65;;;3.13;;
72785;SDS011;60902;53.876;10.674;2022-10-04T01:18:42;7.28;;;2.72;;
72785;SDS011;60902;53.876;10.674;2022-10-04T01:18:54;6.43;;;2.63;;
72785;SDS011;60902;53.876;10.674;2022-10-04T01:19:33;7.25;;;3.00;;
72785;SDS011;60902;53.876;10.674;2022-10-04T01:19:48;7.97;;;2.78;;
72785;SDS011;60902;53.876;10.674;2022-10-04T01:20:01;7.40;;;2.85;;
72785;SDS011;60902;53.876;10.674;2022-10-04T01:20:31;7.03;;;2.53;;
72785;SDS011;60902;53.876;10.674;2022-10-04T01:20:49;7.82;;;2.63;;
72785;SDS011;60902;53.876;10.674;2022-10-04T01:21:06;7.57;;;2.50;;
72785;SDS011;60902;53.876;10.674;2022-10-04T01:21:22;7.00;;;2.55;;
72785;SDS011;60902;53.876;10.674;2022-10-04T01:21:36;6.18;;;2.40;;
72785;SDS011;60902;53.876;10.674;2022-10-04T01:21:55;6.68;;;2.55;;
72785;SDS011;60902;53.876;10.674;2022-10-04T01:22:13;7.43;;;2.90;;
72785;SDS011;60902;53.876;10.674;2022-10-04T01:22:44;7.05;;;2.80;;
72785;SDS011;60902;53.876;10.674;2022-10-04T01:22:59;7.15;;;2.88;;
72785;SDS011;60902;53.876;10.674;2022-10-04T01:23:16;6.65;;;2.85;;
72785;SDS011;60902;53.876;10.674;2022-10-04T01:23:42;6.75;;;2.78;;
72785;SDS011;60902;53.876;10.674;2022-10-04T01:24:32;6.70;;;2.80;;
72785;SDS011;60902;53.876;10.674;2022-10-04T01:24:44;6.85;;;2.72;;
72785;SDS011;60902;53.876;10.674;2022-10-04T01:24:55;6.95;;;2.80;;
72785;SDS011;60902;53.876;10.674;2022-10-04T01:25:06;7.25;;;2.80;;
72785;SDS011;60902;53.876;10.674;2022-10-04T01:25:51;6.38;;;2.70;;
72785;SDS011;60902;53.876;10.674;2022-10-04T01:26:04;5.93;;;2.60;;
72785;SDS011;60902;53.876;10.674;2022-10-04T01:26:37;7.22;;;3.03;;
72785;SDS011;60902;53.876;10.674;2022-10-04T01:26:50;7.00;;;3.10;;
72785;SDS011;60902;53.876;10.674;2022-10-04T01:27:02;6.88;;;2.97;;
72785;SDS011;60902;53.876;10.674;2022-10-04T01:27:32;6.70;;;2.90;;
72785;SDS011;60902;53.876;10.674;2022-10-04T01:27:46;7.45;;;3.13;;
72785;SDS011;60902;53.876;10.674;2022-10-04T01:27:57;7.13;;;3.20;;
72785;SDS011;60902;53.876;10.674;2022-10-04T01:28:08;6.38;;;2.85;;
72785;SDS011;60902;53.876;10.674;2022-10-04T01:28:19;6.28;;;2.67;;
72785;SDS011;60902;53.876;10.674;2022-10-04T01:28:30;6.43;;;2.50;;
72785;SDS011;60902;53.876;10.674;2022-10-04T01:28:42;6.97;;;2.72;;
72785;SDS011;60902;53.876;10.674;2022-10-04T01:28:55;7.22;;;2.92;;
72785;SDS011;60902;53.876;10.674;2022-10-04T01:29:09;6.63;;;2.88;;
72785;SDS011;60902;53.876;10.674;2022-10-04T01:29:23;6.53;;;2.80;;
72785;SDS011;60902;53.876;10.674;2022-10-04T01:29:36;6.47;;;3.10;;
72785;SDS011;60902;53.876;10.674;2022-10-04T01:29:47;6.20;;;3.10;;
72785;SDS011;60902;53.876;10.674;2022-10-04T01:29:58;6.72;;;3.20;;
72785;SDS011;60902;53.876;10.674;2022-10-04T01:30:10;6.68;;;3.00;;
72785;SDS011;60902;53.876;10.674;2022-10-04T01:30:23;6.53;;;2.97;;
72785;SDS011;60902;53.876;10.674;2022-10-04T01:30:34;7.40;;;3.13;;
72785;SDS011;60902;53.876;10.674;2022-10-04T01:30:45;7.63;;;3.08;;
72785;SDS011;60902;53.876;10.674;2022-10-04T01:30:57;7.30;;;3.27;;
72785;SDS011;60902;53.876;10.674;2022-10-04T01:31:09;6.65;;;3.03;;
72785;SDS011;60902;53.876;10.674;2022-10-04T01:31:19;6.75;;;3.03;;
72785;SDS011;60902;53.876;10.674;2022-10-04T01:31:31;7.28;;;3.30;;
72785;SDS011;60902;53.876;10.674;2022-10-04T01:31:44;7.35;;;3.38;;
72785;SDS011;60902;53.876;10.674;2022-10-04T01:31:57;7.55;;;3.22;;
72785;SDS011;60902;53.876;10.674;2022-10-04T01:32:09;7.03;;;3.10;;
72785;SDS011;60902;53.876;10.674;2022-10-04T01:32:20;6.43;;;3.00;;
72785;SDS011;60902;53.876;10.674;2022-10-04T01:32:32;6.50;;;3.00;;
72785;SDS011;60902;53.876;10.674;2022-10-04T01:32:44;6.68;;;2.90;;
72785;SDS011;60902;53.876;10.674;2022-10-04T01:32:55;6.55;;;2.92;;
72785;SDS011;60902;53.876;10.674;2022-10-04T01:33:06;7.07;;;3.03;;
72785;SDS011;60902;53.876;10.674;2022-10-04T01:33:17;7.32;;;3.10;;
72785;SDS011;60902;53.876;10.674;2022-10-04T01:33:28;7.65;;;3.13;;
72785;SDS011;60902;53.876;10.674;2022-10-04T01:33:40;6.73;;;3.03;;
72785;SDS011;60902;53.876;10.674;2022-10-04T01:33:51;6.55;;;3.00;;
72785;SDS011;60902;53.876;10.674;2022-10-04T01:34:02;6.97;;;3.00;;
72785;SDS011;60902;53.876;10.674;2022-10-04T01:34:15;7.43;;;2.95;;
72785;SDS011;60902;53.876;10.674;2022-10-04T01:34:28;6.72;;;2.70;;
72785;SDS011;60902;53.876;10.674;2022-10-04T01:34:39;6.75;;;2.72;;
72785;SDS011;60902;53.876;10.674;2022-10-04T01:34:50;6.65;;;2.80;;
72785;SDS011;60902;53.876;10.674;2022-10-04T01:35:01;6.70;;;3.08;;
72785;SDS011;60902;53.876;10.674;2022-10-04T01:35:13;6.95;;;3.00;;
72785;SDS011;60902;53.876;10.674;2022-10-04T01:35:24;7.25;;;2.90;;
72785;SDS011;60902;53.876;10.674;2022-10-04T01:35:37;7.15;;;2.85;;
72785;SDS011;60902;53.876;10.674;2022-10-04T01:35:50;6.65;;;2.90;;
72785;SDS011;60902;53.876;10.674;2022-10-04T01:36:01;6.60;;;3.30;;
72785;SDS011;60902;53.876;10.674;2022-10-04T01:36:12;6.95;;;3.30;;
72785;SDS011;60902;53.876;10.674;2022-10-04T01:36:23;6.95;;;3.15;;
72785;SDS011;60902;53.876;10.674;2022-10-04T01:36:34;7.13;;;2.83;;
72785;SDS011;60902;53.876;10.674;2022-10-04T01:36:46;6.32;;;2.90;;
72785;SDS011;60902;53.876;10.674;2022-10-04T01:36:58;5.78;;;2.72;;
72785;SDS011;60902;53.876;10.674;2022-10-04T01:37:11;6.47;;;2.95;;
72785;SDS011;60902;53.876;10.674;2022-10-04T01:37:23;6.55;;;2.97;;
72785;SDS011;60902;53.876;10.674;2022-10-04T01:37:35;6.50;;;2.92;;
72785;SDS011;60902;53.876;10.674;2022-10-04T01:37:48;7.30;;;3.13;;
72785;SDS011;60902;53.876;10.674;2022-10-04T01:37:59;7.45;;;3.13;;
72785;SDS011;60902;53.876;10.674;2022-10-04T01:38:11;6.85;;;3.08;;
72785;SDS011;60902;53.876;10.674;2022-10-04T01:38:22;6.90;;;3.25;;
72785;SDS011;60902;53.876;10.674;2022-10-04T01:38:33;6.82;;;3.30;;
72785;SDS011;60902;53.876;10.674;2022-10-04T01:38:45;7.00;;;3.28;;
72785;SDS011;60902;53.876;10.674;2022-10-04T01:38:56;7.15;;;3.00;;
72785;SDS011;60902;53.876;10.674;2022-10-04T01:39:07;7.35;;;2.80;;
72785;SDS011;60902;53.876;10.674;2022-10-04T01:39:19;7.32;;;2.88;;
72785;SDS011;60902;53.876;10.674;2022-10-04T01:39:32;7.35;;;3.10;;
72785;SDS011;60902;53.876;10.674;2022-10-04T01:39:43;7.53;;;3.10;;
72785;SDS011;60902;53.876;10.674;2022-10-04T01:39:54;6.90;;;2.92;;
72785;SDS011;60902;53.876;10.674;2022-10-04T01:40:05;6.75;;;2.97;;
72785;SDS011;60902;53.876;10.674;2022-10-04T01:40:18;7.38;;;3.22;;
72785;SDS011;60902;53.876;10.674;2022-10-04T01:40:29;8.13;;;3.17;;
72785;SDS011;60902;53.876;10.674;2022-10-04T01:40:42;7.30;;;2.95;;
72785;SDS011;60902;53.876;10.674;2022-10-04T01:40:56;6.25;;;2.90;;
72785;SDS011;60902;53.876;10.674;2022-10-04T01:41:11;6.93;;;3.33;;
72785;SDS011;60902;53.876;10.674;2022-10-04T01:41:26;7.60;;;3.47;;
72785;SDS011;60902;53.876;10.674;2022-10-04T01:41:45;6.88;;;3.20;;
72785;SDS011;60902;53.876;10.674;2022-10-04T01:42:03;6.57;;;3.00;;
72785;SDS011;60902;53.876;10.674;2022-10-04T01:42:20;6.50;;;3.00;;
72785;SDS011;60902;53.876;10.674;2022-10-04T01:42:38;6.57;;;3.08;;
72785;SDS011;60902;53.876;10.674;2022-10-04T01:42:54;7.47;;;3.40;;
72785;SDS011;60902;53.876;10.674;2022-10-04T01:43:11;7.35;;;3.53;;
72785;SDS011;60902;53.876;10.674;2022-10-04T01:43:27;6.30;;;3.20;;
72785;SDS011;60902;53.876;10.674;2022-10-04T01:43:42;6.50;;;3.05;;
72785;SDS011;60902;53.876;10.674;2022-10-04T01:43:59;6.88;;;2.83;;
72785;SDS011;60902;53.876;10.674;2022-10-04T01:44:16;7.13;;;2.95;;
72785;SDS011;60902;53.876;10.674;2022-10-04T01:44:32;6.97;;;3.05;;
72785;SDS011;60902;53.876;10.674;2022-10-04T01:44:50;7.28;;;3.00;;
72785;SDS011;60902;53.876;10.674;2022-10-04T01:45:07;6.97;;;2.90;;